createdAt,value
2022-09-23T00:01:15.867Z,25.00
2022-09-23T00:03:45.458Z,25.00
2022-09-23T00:06:24.046Z,25.00
2022-09-23T00:08:52.341Z,25.00
2022-09-23T00:11:23.819Z,25.00
2022-09-23T00:13:56.046Z,25.00
2022-09-23T00:16:28.386Z,25.00
2022-09-23T00:18:56.357Z,25.00
2022-09-23T00:21:23.582Z,25.00
2022-09-23T00:23:50.656Z,25.00
2022-09-23T00:26:21.076Z,25.00
2022-09-23T00:28:52.581Z,25.00
2022-09-23T00:31:24.210Z,25.00
2022-09-23T00:33:56.759Z,25.00
2022-09-23T00:36:24.567Z,24.90
2022-09-23T00:38:51.916Z,25.00
2022-09-23T00:41:18.922Z,25.00
2022-09-23T00:43:52.801Z,25.00
2022-09-23T00:46:43.529Z,25.00
2022-09-23T00:49:32.734Z,25.00
2022-09-23T00:52:10.571Z,25.00
2022-09-23T00:54:38.101Z,24.90
2022-09-23T00:57:08.656Z,25.00
2022-09-23T00:59:36.983Z,25.00
2022-09-23T01:02:05.342Z,26.50
2022-09-23T01:04:32.271Z,24.90
2022-09-23T01:06:59.168Z,25.00
2022-09-23T01:09:26.692Z,24.90
2022-09-23T01:12:21.477Z,24.90
2022-09-23T01:15:27.842Z,24.90
2022-09-23T01:18:09.864Z,25.00
2022-09-23T01:20:45.422Z,25.00
2022-09-23T01:23:32.186Z,24.90
2022-09-23T01:26:27.941Z,24.90
2022-09-23T01:29:19.476Z,24.90
2022-09-23T01:32:39.414Z,24.90
2022-09-23T01:35:30.306Z,24.90
2022-09-23T01:38:21.278Z,24.90
2022-09-23T01:41:00.097Z,24.90
2022-09-23T01:43:57.948Z,24.90
2022-09-23T01:46:52.261Z,24.90
2022-09-23T01:49:38.166Z,24.90
2022-09-23T01:52:29.168Z,24.90
2022-09-23T01:55:26.933Z,24.90
2022-09-23T01:58:17.909Z,24.90
2022-09-23T02:00:57.789Z,24.90
2022-09-23T02:03:51.818Z,24.80
2022-09-23T02:06:27.792Z,24.90
2022-09-23T02:09:18.727Z,24.80
2022-09-23T02:11:52.455Z,24.90
2022-09-23T02:14:32.116Z,24.80
2022-09-23T02:17:08.859Z,24.90
2022-09-23T02:19:47.814Z,24.90
2022-09-23T02:22:29.867Z,24.90
2022-09-23T02:24:59.125Z,24.80
2022-09-23T02:27:57.615Z,24.80
2022-09-23T02:30:31.761Z,24.90
2022-09-23T02:33:23.398Z,24.90
2022-09-23T02:36:06.945Z,24.90
2022-09-23T02:38:52.339Z,24.80
2022-09-23T02:41:56.897Z,24.80
2022-09-23T02:44:24.422Z,24.80
2022-09-23T02:46:53.170Z,24.80
2022-09-23T02:49:29.520Z,24.80
2022-09-23T02:52:04.730Z,24.80
2022-09-23T02:54:33.842Z,24.80
2022-09-23T02:57:05.589Z,24.80
2022-09-23T02:59:35.029Z,24.80
2022-09-23T03:02:23.924Z,24.80
2022-09-23T03:04:58.434Z,24.80
2022-09-23T03:07:53.024Z,24.80
2022-09-23T03:10:28.157Z,24.80
2022-09-23T03:13:19.409Z,24.80
2022-09-23T03:16:11.040Z,24.80
2022-09-23T03:18:45.472Z,24.80
2022-09-23T03:21:27.560Z,24.80
2022-09-23T03:23:59.505Z,24.80
2022-09-23T03:26:35.062Z,24.80
2022-09-23T03:29:09.654Z,24.80
2022-09-23T03:31:41.299Z,24.80
2022-09-23T03:34:20.567Z,24.70
2022-09-23T03:37:10.855Z,24.80
2022-09-23T03:39:44.202Z,24.80
2022-09-23T03:42:22.288Z,24.80
2022-09-23T03:44:54.326Z,24.80
2022-09-23T03:47:23.587Z,24.70
2022-09-23T03:49:52.883Z,24.70
2022-09-23T03:52:23.586Z,24.70
2022-09-23T03:54:52.227Z,24.70
2022-09-23T03:57:23.688Z,24.70
2022-09-23T03:59:51.787Z,24.70
2022-09-23T04:02:20.728Z,24.70
2022-09-23T04:04:47.770Z,24.70
2022-09-23T04:07:15.151Z,24.70
2022-09-23T04:09:42.260Z,24.70
2022-09-23T04:12:17.107Z,24.70
2022-09-23T04:14:45.007Z,24.70
2022-09-23T04:17:13.307Z,24.70
2022-09-23T04:19:40.253Z,24.70
2022-09-23T04:22:08.051Z,24.70
2022-09-23T04:24:35.014Z,24.70
2022-09-23T04:27:03.656Z,24.70
2022-09-23T04:29:30.596Z,24.70
2022-09-23T04:31:57.772Z,24.70
2022-09-23T04:34:24.784Z,24.70
2022-09-23T04:36:51.771Z,24.70
2022-09-23T04:39:18.680Z,24.70
2022-09-23T04:41:46.657Z,24.70
2022-09-23T04:44:14.804Z,24.70
2022-09-23T04:46:43.856Z,24.70
2022-09-23T04:49:12.960Z,24.60
2022-09-23T04:51:43.387Z,24.70
2022-09-23T04:54:12.558Z,24.70
2022-09-23T04:56:39.760Z,24.70
2022-09-23T04:59:07.577Z,24.20
2022-09-23T05:01:36.360Z,24.70
2022-09-23T05:04:10.025Z,24.60
2022-09-23T05:06:37.409Z,24.70
2022-09-23T05:09:08.907Z,24.60
2022-09-23T05:11:36.193Z,24.70
2022-09-23T05:14:03.267Z,24.70
2022-09-23T05:16:30.693Z,24.60
2022-09-23T05:18:58.277Z,24.60
2022-09-23T05:21:32.627Z,24.60
2022-09-23T05:24:00.789Z,24.60
2022-09-23T05:26:31.073Z,24.60
2022-09-23T05:28:59.215Z,24.60
2022-09-23T05:31:29.644Z,24.60
2022-09-23T05:34:03.538Z,24.60
2022-09-23T05:36:37.914Z,24.60
2022-09-23T05:39:07.842Z,24.60
2022-09-23T05:41:35.248Z,24.60
2022-09-23T05:44:02.744Z,24.60
2022-09-23T05:46:31.750Z,24.70
2022-09-23T05:49:02.916Z,24.70
2022-09-23T05:51:34.679Z,24.70
2022-09-23T05:54:05.949Z,24.70
2022-09-23T05:56:34.809Z,24.70
2022-09-23T05:59:03.821Z,24.70
2022-09-23T06:01:36.455Z,24.70
2022-09-23T06:04:06.578Z,24.70
2022-09-23T06:06:37.664Z,24.80
2022-09-23T06:09:07.379Z,24.80
2022-09-23T06:11:36.565Z,24.80
2022-09-23T06:14:06.726Z,24.80
2022-09-23T06:16:37.069Z,24.80
2022-09-23T06:19:07.390Z,24.80
2022-09-23T06:21:40.523Z,24.80
2022-09-23T06:24:09.216Z,24.80
2022-09-23T06:26:37.701Z,24.80
2022-09-23T06:29:11.858Z,24.80
2022-09-23T06:31:41.119Z,24.80
2022-09-23T06:34:13.668Z,24.80
2022-09-23T06:36:45.019Z,24.80
2022-09-23T06:39:14.887Z,24.80
2022-09-23T06:41:41.887Z,24.80
2022-09-23T06:44:08.890Z,24.80
2022-09-23T06:46:36.804Z,24.80
2022-09-23T06:49:04.240Z,24.80
2022-09-23T06:51:31.410Z,24.80
2022-09-23T06:53:58.330Z,24.90
2022-09-23T06:56:25.221Z,24.90
2022-09-23T06:58:53.167Z,24.90
2022-09-23T07:01:20.289Z,24.90
2022-09-23T07:03:50.256Z,25.00
2022-09-23T07:06:17.948Z,24.90
2022-09-23T07:08:49.998Z,24.90
2022-09-23T07:11:19.416Z,24.70
2022-09-23T07:13:46.274Z,24.90
2022-09-23T07:16:13.447Z,24.90
2022-09-23T07:18:41.074Z,25.00
2022-09-23T07:21:15.325Z,25.00
2022-09-23T07:23:47.667Z,25.00
2022-09-23T07:26:17.158Z,25.00
2022-09-23T07:28:45.527Z,25.00
2022-09-23T07:31:31.714Z,25.10
2022-09-23T07:34:03.828Z,25.10
2022-09-23T07:39:03.823Z,25.10
2022-09-23T07:41:33.161Z,25.10
2022-09-23T07:44:03.166Z,25.20
2022-09-23T07:46:34.820Z,25.20
2022-09-23T07:49:03.154Z,25.20
2022-09-23T07:51:37.073Z,25.20
2022-09-23T07:54:10.351Z,25.20
2022-09-23T07:56:38.586Z,25.20
2022-09-23T07:59:08.804Z,25.20
2022-09-23T08:01:42.808Z,25.20
2022-09-23T08:04:29.219Z,25.20
2022-09-23T08:07:00.227Z,25.20
2022-09-23T08:09:34.937Z,25.20
2022-09-23T08:12:02.121Z,25.20
2022-09-23T08:14:31.928Z,25.10
2022-09-23T08:16:59.599Z,25.10
2022-09-23T08:19:26.995Z,25.10
2022-09-23T08:21:54.498Z,25.10
2022-09-23T08:24:26.491Z,25.00
2022-09-23T08:26:54.715Z,25.00
2022-09-23T08:29:24.131Z,25.10
2022-09-23T08:31:52.408Z,25.10
2022-09-23T08:34:21.706Z,25.00
2022-09-23T08:36:48.824Z,25.00
2022-09-23T08:39:18.667Z,25.00
2022-09-23T08:42:17.632Z,25.10
2022-09-23T08:44:56.767Z,25.10
2022-09-23T08:47:45.465Z,25.10
2022-09-23T08:50:43.753Z,25.10
2022-09-23T08:53:35.529Z,25.10
2022-09-23T08:56:24.083Z,25.10
2022-09-23T08:59:20.976Z,25.10
2022-09-23T09:02:00.701Z,25.10
2022-09-23T09:04:44.449Z,25.10
2022-09-23T09:10:47.337Z,25.10
2022-09-23T09:13:35.887Z,25.20
2022-09-23T09:16:59.548Z,25.10
2022-09-23T09:20:01.241Z,25.20
2022-09-23T09:22:57.746Z,25.20
2022-09-23T09:25:50.195Z,25.20
2022-09-23T09:28:31.045Z,25.20
2022-09-23T09:31:03.351Z,25.10
2022-09-23T09:33:59.896Z,25.20
2022-09-23T09:37:07.554Z,25.20
2022-09-23T09:39:36.834Z,25.20
2022-09-23T09:42:06.536Z,25.20
2022-09-23T09:44:45.008Z,25.20
2022-09-23T09:48:05.818Z,25.20
2022-09-23T09:50:49.327Z,25.30
2022-09-23T09:53:35.674Z,25.30
2022-09-23T09:56:15.080Z,25.30
2022-09-23T09:59:11.511Z,25.30
2022-09-23T10:01:38.897Z,25.30
2022-09-23T10:04:22.659Z,25.30
2022-09-23T10:07:15.630Z,25.30
2022-09-23T10:09:53.920Z,25.40
2022-09-23T10:12:25.704Z,25.60
2022-09-23T10:14:57.350Z,25.40
2022-09-23T10:17:35.415Z,25.50
2022-09-23T10:20:15.713Z,25.50
2022-09-23T10:22:43.377Z,25.50
2022-09-23T10:25:20.758Z,25.60
2022-09-23T10:27:47.700Z,25.50
2022-09-23T10:30:28.205Z,25.60
2022-09-23T10:32:57.021Z,25.60
2022-09-23T10:35:26.660Z,26.20
2022-09-23T10:37:55.615Z,25.60
2022-09-23T10:41:02.209Z,25.70
2022-09-23T10:44:11.314Z,25.70
2022-09-23T10:47:14.579Z,25.70
2022-09-23T10:50:08.205Z,25.80
2022-09-23T10:53:10.314Z,25.80
2022-09-23T10:55:58.072Z,25.90
2022-09-23T10:59:09.101Z,26.00
2022-09-23T11:02:15.212Z,26.00
2022-09-23T11:05:18.765Z,26.10
2022-09-23T11:08:36.355Z,26.20
2022-09-23T11:11:20.647Z,26.20
2022-09-23T11:14:16.921Z,26.30
2022-09-23T11:17:22.448Z,26.40
2022-09-23T11:20:23.065Z,26.50
2022-09-23T11:23:20.962Z,26.60
2022-09-23T11:26:04.626Z,26.70
2022-09-23T11:29:13.586Z,26.90
2022-09-23T11:32:07.619Z,27.10
2022-09-23T11:34:40.255Z,27.20
2022-09-23T11:37:22.999Z,27.40
2022-09-23T11:40:01.155Z,27.50
2022-09-23T11:42:40.493Z,27.60
2022-09-23T11:45:23.378Z,27.70
2022-09-23T11:48:19.735Z,27.90
2022-09-23T11:51:16.689Z,28.10
2022-09-23T11:53:56.258Z,28.20
2022-09-23T11:56:37.403Z,28.40
2022-09-23T11:59:40.710Z,28.50
2022-09-23T12:02:21.118Z,28.60
2022-09-23T12:05:10.270Z,28.60
2022-09-23T12:08:18.417Z,28.60
2022-09-23T12:11:10.337Z,28.60
2022-09-23T12:14:18.214Z,28.60
2022-09-23T12:17:27.733Z,28.60
2022-09-23T12:20:21.606Z,28.50
2022-09-23T12:23:21.698Z,28.50
2022-09-23T12:25:57.201Z,28.40
2022-09-23T12:28:38.652Z,28.40
2022-09-23T12:31:22.196Z,28.30
2022-09-23T12:33:53.963Z,28.30
2022-09-23T12:36:34.866Z,28.20
2022-09-23T12:39:07.377Z,28.10
2022-09-23T12:41:43.107Z,28.10
2022-09-23T12:44:26.243Z,28.10
2022-09-23T12:47:25.186Z,28.00
2022-09-23T12:49:53.465Z,27.90
2022-09-23T12:52:21.926Z,27.80
2022-09-23T12:54:56.991Z,27.80
2022-09-23T12:57:38.729Z,27.70
2022-09-23T13:00:11.344Z,27.60
2022-09-23T13:02:46.578Z,27.50
2022-09-23T13:05:46.956Z,27.40
2022-09-23T13:08:23.734Z,27.40
2022-09-23T13:11:05.342Z,27.30
2022-09-23T13:13:44.082Z,27.30
2022-09-23T13:16:24.121Z,27.20
2022-09-23T13:18:57.178Z,27.10
2022-09-23T13:21:42.965Z,27.10
2022-09-23T13:24:31.247Z,27.10
2022-09-23T13:27:15.169Z,27.00
2022-09-23T13:29:59.089Z,27.00
2022-09-23T13:32:35.761Z,27.00
2022-09-23T13:35:16.012Z,26.90
2022-09-23T13:37:48.041Z,26.90
2022-09-23T13:40:28.915Z,26.80
2022-09-23T13:43:08.960Z,26.80
2022-09-23T13:45:43.214Z,26.80
2022-09-23T13:48:17.972Z,26.70
2022-09-23T13:50:51.872Z,26.70
2022-09-23T13:53:31.443Z,26.70
2022-09-23T13:56:14.074Z,26.70
2022-09-23T13:58:43.362Z,26.60
2022-09-23T14:01:32.296Z,26.60
2022-09-23T14:04:00.876Z,26.60
2022-09-23T14:06:39.143Z,26.60
2022-09-23T14:09:06.887Z,26.60
2022-09-23T14:11:35.523Z,26.60
2022-09-23T14:14:08.097Z,26.50
2022-09-23T14:16:42.833Z,26.50
2022-09-23T14:19:21.410Z,26.50
2022-09-23T14:21:52.953Z,26.60
2022-09-23T14:24:32.246Z,26.50
2022-09-23T14:27:07.807Z,26.50
2022-09-23T14:29:38.776Z,26.50
2022-09-23T14:32:18.233Z,26.50
2022-09-23T14:35:13.364Z,26.50
2022-09-23T14:38:04.694Z,26.50
2022-09-23T14:40:37.010Z,26.40
2022-09-23T14:43:17.633Z,26.50
2022-09-23T14:45:50.479Z,26.40
2022-09-23T14:48:28.398Z,26.40
2022-09-23T14:50:59.216Z,26.40
2022-09-23T14:53:53.126Z,26.40
2022-09-23T14:56:25.281Z,26.40
2022-09-23T14:58:56.301Z,26.40
2022-09-23T15:01:32.570Z,26.40
2022-09-23T15:04:31.046Z,26.40
2022-09-23T15:07:20.641Z,26.40
2022-09-23T15:09:47.668Z,26.40
2022-09-23T15:12:21.698Z,26.30
2022-09-23T15:14:56.627Z,26.30
2022-09-23T15:17:26.213Z,26.30
2022-09-23T15:20:16.689Z,26.30
2022-09-23T15:22:46.429Z,26.30
2022-09-23T15:25:41.570Z,26.30
2022-09-23T15:28:14.225Z,26.30
2022-09-23T15:30:41.572Z,26.20
2022-09-23T15:33:16.413Z,26.30
2022-09-23T15:35:48.457Z,26.30
2022-09-23T15:38:17.501Z,26.30
2022-09-23T15:40:44.857Z,26.20
2022-09-23T15:43:24.164Z,26.30
2022-09-23T15:45:59.115Z,26.30
2022-09-23T15:48:40.396Z,26.30
2022-09-23T15:51:09.792Z,26.30
2022-09-23T15:53:39.719Z,26.20
2022-09-23T15:56:06.789Z,26.30
2022-09-23T15:58:33.988Z,26.20
2022-09-23T16:01:01.662Z,26.20
2022-09-23T16:03:28.959Z,26.30
2022-09-23T16:06:01.228Z,26.30
2022-09-23T16:08:30.036Z,26.20
2022-09-23T16:10:58.094Z,26.20
2022-09-23T16:13:25.077Z,26.30
2022-09-23T16:15:52.053Z,26.20
2022-09-23T16:18:20.116Z,26.20
2022-09-23T16:20:49.436Z,26.20
2022-09-23T16:23:37.178Z,26.30
2022-09-23T16:26:26.854Z,26.20
2022-09-23T16:28:56.616Z,26.20
2022-09-23T16:31:25.630Z,26.20
2022-09-23T16:33:53.626Z,26.20
2022-09-23T16:36:27.724Z,26.20
2022-09-23T16:38:59.807Z,26.20
2022-09-23T16:41:29.607Z,26.20
2022-09-23T16:43:56.670Z,26.20
2022-09-23T16:46:24.371Z,26.20
2022-09-23T16:48:52.923Z,26.10
2022-09-23T16:51:23.020Z,26.10
2022-09-23T16:53:51.686Z,26.10
2022-09-23T16:56:25.818Z,26.10
2022-09-23T16:58:56.261Z,26.10
2022-09-23T17:01:47.858Z,26.10
2022-09-23T17:04:18.304Z,26.10
2022-09-23T17:06:51.023Z,26.10
2022-09-23T17:09:24.779Z,26.10
2022-09-23T17:12:11.480Z,26.10
2022-09-23T17:14:40.479Z,26.20
2022-09-23T17:17:07.431Z,26.20
2022-09-23T17:19:34.768Z,26.10
2022-09-23T17:22:01.734Z,26.10
2022-09-23T17:24:28.592Z,26.10
2022-09-23T17:26:56.112Z,26.10
2022-09-23T17:29:22.984Z,26.10
2022-09-23T17:31:49.984Z,26.10
2022-09-23T17:34:19.123Z,26.10
2022-09-23T17:36:46.257Z,26.20
2022-09-23T17:39:13.911Z,26.10
2022-09-23T17:41:40.771Z,26.10
2022-09-23T17:44:11.379Z,26.10
2022-09-23T17:46:38.249Z,26.10
2022-09-23T17:49:06.796Z,26.10
2022-09-23T17:51:33.881Z,26.10
2022-09-23T17:54:00.834Z,26.10
2022-09-23T17:56:31.277Z,26.10
2022-09-23T17:59:01.953Z,26.20
2022-09-23T18:01:30.096Z,26.10
2022-09-23T18:04:00.984Z,26.10
2022-09-23T18:06:35.636Z,26.10
2022-09-23T18:09:06.948Z,26.10
2022-09-23T18:11:37.964Z,26.10
2022-09-23T18:14:12.648Z,26.10
2022-09-23T18:16:42.285Z,26.20
2022-09-23T18:19:14.335Z,26.20
2022-09-23T18:21:46.630Z,26.20
2022-09-23T18:27:01.549Z,26.10
2022-09-23T18:29:28.632Z,26.20
2022-09-23T18:31:55.949Z,26.20
2022-09-23T18:34:23.601Z,26.10
2022-09-23T18:36:50.880Z,26.20
2022-09-23T18:39:21.683Z,26.20
2022-09-23T18:41:49.626Z,26.10
2022-09-23T18:44:17.094Z,26.10
2022-09-23T18:46:44.788Z,26.10
2022-09-23T18:49:30.246Z,26.10
2022-09-23T18:51:58.412Z,26.10
2022-09-23T18:54:28.544Z,26.10
2022-09-23T18:56:56.703Z,26.10
2022-09-23T18:59:29.588Z,26.10
2022-09-23T19:01:57.391Z,26.10
2022-09-23T19:04:26.931Z,26.10
2022-09-23T19:06:56.609Z,26.00
2022-09-23T19:09:24.288Z,26.00
2022-09-23T19:11:52.808Z,26.00
2022-09-23T19:14:20.373Z,26.00
2022-09-23T19:16:51.015Z,26.00
2022-09-23T19:19:18.441Z,26.00
2022-09-23T19:21:45.466Z,26.00
2022-09-23T19:24:16.083Z,26.00
2022-09-23T19:26:44.060Z,26.00
2022-09-23T19:29:19.493Z,26.00
2022-09-23T19:31:46.749Z,26.00
2022-09-23T19:34:26.096Z,25.90
2022-09-23T19:37:00.028Z,25.90
2022-09-23T19:39:31.168Z,25.90
2022-09-23T19:41:59.297Z,25.90
2022-09-23T19:44:27.309Z,25.80
2022-09-23T19:46:56.811Z,25.80
2022-09-23T19:49:25.263Z,25.80
2022-09-23T19:51:55.496Z,25.80
2022-09-23T19:54:26.009Z,25.80
2022-09-23T19:56:54.163Z,25.80
2022-09-23T19:59:21.028Z,25.80
2022-09-23T20:01:48.859Z,25.80
2022-09-23T20:04:16.684Z,25.70
2022-09-23T20:06:44.025Z,25.70
2022-09-23T20:09:10.951Z,25.70
2022-09-23T20:11:38.065Z,25.70
2022-09-23T20:14:06.273Z,25.70
2022-09-23T20:16:37.046Z,25.70
2022-09-23T20:19:05.724Z,25.70
2022-09-23T20:21:33.792Z,25.70
2022-09-23T20:24:05.202Z,25.70
2022-09-23T20:26:50.982Z,25.70
2022-09-23T20:29:17.923Z,25.60
2022-09-23T20:31:45.032Z,25.60
2022-09-23T20:34:12.217Z,25.60
2022-09-23T20:36:41.641Z,25.60
2022-09-23T20:39:12.707Z,25.60
2022-09-23T20:41:40.778Z,25.60
2022-09-23T20:44:14.366Z,25.60
2022-09-23T20:46:49.469Z,25.50
2022-09-23T20:49:17.752Z,25.50
2022-09-23T20:51:47.580Z,25.50
2022-09-23T20:54:14.871Z,25.50
2022-09-23T20:56:41.877Z,25.50
2022-09-23T20:59:10.735Z,25.50
2022-09-23T21:01:37.767Z,25.50
2022-09-23T21:04:05.977Z,25.50
2022-09-23T21:06:36.630Z,25.50
2022-09-23T21:09:06.178Z,25.50
2022-09-23T21:11:33.911Z,25.50
2022-09-23T21:14:01.537Z,25.40
2022-09-23T21:16:29.471Z,25.50
2022-09-23T21:18:56.653Z,25.40
2022-09-23T21:21:23.583Z,25.40
2022-09-23T21:23:51.266Z,25.40
2022-09-23T21:26:24.631Z,25.40
2022-09-23T21:29:00.391Z,25.40
2022-09-23T21:31:38.730Z,25.40
2022-09-23T21:34:08.890Z,25.40
2022-09-23T21:36:38.804Z,25.30
2022-09-23T21:39:08.031Z,25.40
2022-09-23T21:41:35.904Z,25.40
2022-09-23T21:44:08.246Z,25.40
2022-09-23T21:46:36.162Z,25.40
2022-09-23T21:49:04.948Z,25.30
2022-09-23T21:51:36.505Z,25.30
2022-09-23T21:54:05.656Z,25.30
2022-09-23T21:56:35.305Z,25.30
2022-09-23T21:59:02.856Z,25.30
2022-09-23T22:01:35.047Z,25.30
2022-09-23T22:04:08.453Z,25.30
2022-09-23T22:06:38.334Z,25.30
2022-09-23T22:09:10.940Z,25.30
2022-09-23T22:11:58.382Z,25.30
2022-09-23T22:14:26.455Z,25.30
2022-09-23T22:16:59.138Z,25.30
2022-09-23T22:19:34.757Z,25.20
2022-09-23T22:22:06.219Z,25.30
2022-09-23T22:24:33.093Z,25.30
2022-09-23T22:26:59.974Z,25.30
2022-09-23T22:29:45.547Z,25.20
2022-09-23T22:32:31.456Z,25.20
2022-09-23T22:34:58.328Z,25.20
2022-09-23T22:37:34.082Z,25.20
2022-09-23T22:40:07.291Z,25.20
2022-09-23T22:42:36.237Z,25.20
2022-09-23T22:45:05.821Z,25.20
2022-09-23T22:47:38.186Z,25.20
2022-09-23T22:50:08.324Z,25.20
2022-09-23T22:52:35.601Z,25.20
2022-09-23T22:55:03.732Z,25.20
2022-09-23T22:57:31.286Z,25.20
2022-09-23T22:59:58.266Z,25.10
2022-09-23T23:02:25.201Z,25.20
2022-09-23T23:04:52.240Z,25.20
2022-09-23T23:07:21.375Z,25.20
2022-09-23T23:09:51.157Z,25.20
2022-09-23T23:12:20.362Z,25.10
2022-09-23T23:14:48.836Z,25.20
2022-09-23T23:17:16.440Z,25.10
2022-09-23T23:19:43.751Z,25.10
2022-09-23T23:22:10.715Z,25.10
2022-09-23T23:24:37.682Z,25.10
2022-09-23T23:27:04.770Z,25.10
2022-09-23T23:29:31.641Z,25.10
2022-09-23T23:31:58.555Z,25.10
2022-09-23T23:34:25.384Z,25.10
2022-09-23T23:36:56.953Z,25.10
2022-09-23T23:39:25.200Z,25.10
2022-09-23T23:41:57.727Z,25.10
2022-09-23T23:44:26.677Z,25.10
2022-09-23T23:46:55.258Z,25.10
2022-09-23T23:49:22.605Z,25.10
2022-09-23T23:51:49.716Z,25.10
2022-09-23T23:54:16.805Z,25.10
2022-09-23T23:56:44.138Z,25.10
2022-09-23T23:59:11.320Z,25.10
